Terminal Aerodrome Forecast
Issued by NWS Chicago, IL

Home | Current Version | Previous Version | Graphics & Text | Print | Product List | Glossary On
Versions: 1 2 3 4 5 6 7 8 9 10 11 12 13 14 15 16 17 18 19 20 21 22 23 24 25 26 27 28 29 30
701
FTUS43 KLOT 292149 AAD
TAFRFD
TAF AMD
KRFD 292149Z 2922/3018 13008KT P6SM VCTS SCT035CB BKN100
      TEMPO 2922/2923 1SM TSRA BKN025CB BKN050
     FM300000 08007KT P6SM SCT030 BKN100
     FM300100 12003KT P6SM BKN250
     FM300900 VRB03KT P6SM VCSH SCT050 BKN100
     FM301400 24005KT P6SM VCSH SCT025 BKN080=

USA.gov is the U.S. government's official web portal to all federal, state and local government web resources and services.